sensor_id;sensor_type;location;lat;lon;timestamp;pressure;altitude;pressure_sealevel;temperature
79053;BMP280;68451;49.510;6.026;2023-04-03T00:00:53;99053.81;;;3.49
79053;BMP280;68451;49.510;6.026;2023-04-03T00:03:19;99029.22;;;3.20
79053;BMP280;68451;49.510;6.026;2023-04-03T00:05:45;99050.00;;;3.36
79053;BMP280;68451;49.510;6.026;2023-04-03T00:08:11;99027.50;;;3.28
79053;BMP280;68451;49.510;6.026;2023-04-03T00:10:37;98951.63;;;2.78
79053;BMP280;68451;49.510;6.026;2023-04-03T00:13:04;99041.19;;;3.21
79053;BMP280;68451;49.510;6.026;2023-04-03T00:15:30;99007.28;;;2.98
79053;BMP280;68451;49.510;6.026;2023-04-03T00:17:55;99029.22;;;3.02
79053;BMP280;68451;49.510;6.026;2023-04-03T00:20:21;98860.75;;;2.05
79053;BMP280;68451;49.510;6.026;2023-04-03T00:22:46;99053.25;;;3.20
79053;BMP280;68451;49.510;6.026;2023-04-03T00:25:12;99053.72;;;3.15
79053;BMP280;68451;49.510;6.026;2023-04-03T00:27:38;98991.94;;;2.79
79053;BMP280;68451;49.510;6.026;2023-04-03T00:30:06;99031.31;;;2.98
79053;BMP280;68451;49.510;6.026;2023-04-03T00:32:32;99031.38;;;2.89
79053;BMP280;68451;49.510;6.026;2023-04-03T00:34:57;99007.91;;;2.82
79053;BMP280;68451;49.510;6.026;2023-04-03T00:37:23;99021.69;;;2.91
79053;BMP280;68451;49.510;6.026;2023-04-03T00:39:49;98993.25;;;2.83
79053;BMP280;68451;49.510;6.026;2023-04-03T00:42:15;99020.63;;;2.93
79053;BMP280;68451;49.510;6.026;2023-04-03T00:47:46;99042.13;;;3.02
79053;BMP280;68451;49.510;6.026;2023-04-03T00:50:12;99034.16;;;2.95
79053;BMP280;68451;49.510;6.026;2023-04-03T00:52:38;98991.34;;;2.67
79053;BMP280;68451;49.510;6.026;2023-04-03T00:55:07;99025.47;;;2.79
79053;BMP280;68451;49.510;6.026;2023-04-03T00:57:33;98921.84;;;2.12
79053;BMP280;68451;49.510;6.026;2023-04-03T01:00:07;99048.69;;;2.79
79053;BMP280;68451;49.510;6.026;2023-04-03T01:02:34;99036.22;;;2.74
79053;BMP280;68451;49.510;6.026;2023-04-03T01:05:00;99002.75;;;2.64
79053;BMP280;68451;49.510;6.026;2023-04-03T01:07:29;99034.69;;;2.81
79053;BMP280;68451;49.510;6.026;2023-04-03T01:10:00;99046.41;;;2.93
79053;BMP280;68451;49.510;6.026;2023-04-03T01:12:29;99049.56;;;2.87
79053;BMP280;68451;49.510;6.026;2023-04-03T01:15:01;99037.91;;;2.83
79053;BMP280;68451;49.510;6.026;2023-04-03T01:17:34;99027.00;;;2.72
79053;BMP280;68451;49.510;6.026;2023-04-03T01:20:34;99054.16;;;2.93
79053;BMP280;68451;49.510;6.026;2023-04-03T01:23:20;99055.63;;;2.96
79053;BMP280;68451;49.510;6.026;2023-04-03T01:25:54;98917.28;;;2.24
79053;BMP280;68451;49.510;6.026;2023-04-03T01:28:22;99057.31;;;3.05
79053;BMP280;68451;49.510;6.026;2023-04-03T01:30:59;99057.53;;;2.94
79053;BMP280;68451;49.510;6.026;2023-04-03T01:33:26;99058.56;;;3.01
79053;BMP280;68451;49.510;6.026;2023-04-03T01:35:52;99057.53;;;2.94
79053;BMP280;68451;49.510;6.026;2023-04-03T01:38:17;99037.59;;;2.68
79053;BMP280;68451;49.510;6.026;2023-04-03T01:40:43;99056.50;;;2.87
79053;BMP280;68451;49.510;6.026;2023-04-03T01:43:08;99037.41;;;2.80
79053;BMP280;68451;49.510;6.026;2023-04-03T01:45:34;99025.00;;;2.65
79053;BMP280;68451;49.510;6.026;2023-04-03T01:47:59;98880.84;;;1.74
79053;BMP280;68451;49.510;6.026;2023-04-03T01:50:25;99041.38;;;2.74
79053;BMP280;68451;49.510;6.026;2023-04-03T01:52:51;99050.88;;;2.74
79053;BMP280;68451;49.510;6.026;2023-04-03T01:55:16;99055.06;;;2.75
79053;BMP280;68451;49.510;6.026;2023-04-03T01:57:42;99044.84;;;2.83
79053;BMP280;68451;49.510;6.026;2023-04-03T02:00:08;99014.31;;;2.60
79053;BMP280;68451;49.510;6.026;2023-04-03T02:02:34;99009.97;;;2.61
79053;BMP280;68451;49.510;6.026;2023-04-03T02:05:00;99050.00;;;2.83
79053;BMP280;68451;49.510;6.026;2023-04-03T02:07:26;99039.31;;;2.78
79053;BMP280;68451;49.510;6.026;2023-04-03T02:09:51;99053.53;;;2.82
79053;BMP280;68451;49.510;6.026;2023-04-03T02:12:17;99029.59;;;2.72
79053;BMP280;68451;49.510;6.026;2023-04-03T02:14:42;99018.53;;;2.61
79053;BMP280;68451;49.510;6.026;2023-04-03T02:17:08;99014.31;;;2.60
79053;BMP280;68451;49.510;6.026;2023-04-03T02:19:34;99036.50;;;2.71
79053;BMP280;68451;49.510;6.026;2023-04-03T02:22:02;99060.19;;;2.84
79053;BMP280;68451;49.510;6.026;2023-04-03T02:24:27;99043.94;;;2.74
79053;BMP280;68451;49.510;6.026;2023-04-03T02:27:18;99032.59;;;2.67
79053;BMP280;68451;49.510;6.026;2023-04-03T02:29:43;99028.47;;;2.74
79053;BMP280;68451;49.510;6.026;2023-04-03T02:32:09;99030.72;;;2.59
79053;BMP280;68451;49.510;6.026;2023-04-03T02:34:34;99000.28;;;2.28
79053;BMP280;68451;49.510;6.026;2023-04-03T02:37:00;99021.50;;;2.39
79053;BMP280;68451;49.510;6.026;2023-04-03T02:39:26;99057.25;;;2.52
79053;BMP280;68451;49.510;6.026;2023-04-03T02:41:51;99051.19;;;2.43
79053;BMP280;68451;49.510;6.026;2023-04-03T02:44:17;99022.22;;;2.32
79053;BMP280;68451;49.510;6.026;2023-04-03T02:46:43;99052.34;;;2.31
79053;BMP280;68451;49.510;6.026;2023-04-03T02:49:08;98993.50;;;1.99
79053;BMP280;68451;49.510;6.026;2023-04-03T02:51:34;99035.41;;;2.19
79053;BMP280;68451;49.510;6.026;2023-04-03T02:53:59;99048.56;;;2.25
79053;BMP280;68451;49.510;6.026;2023-04-03T02:56:25;99035.22;;;2.03
79053;BMP280;68451;49.510;6.026;2023-04-03T02:58:52;99033.75;;;2.00
79053;BMP280;68451;49.510;6.026;2023-04-03T03:01:17;99033.38;;;1.86
79053;BMP280;68451;49.510;6.026;2023-04-03T03:03:43;98924.53;;;1.19
79053;BMP280;68451;49.510;6.026;2023-04-03T03:06:11;99042.78;;;1.77
79053;BMP280;68451;49.510;6.026;2023-04-03T03:08:37;99052.66;;;1.82
79053;BMP280;68451;49.510;6.026;2023-04-03T03:11:03;99052.88;;;1.88
79053;BMP280;68451;49.510;6.026;2023-04-03T03:13:29;99057.66;;;1.83
79053;BMP280;68451;49.510;6.026;2023-04-03T03:15:55;98962.94;;;1.21
79053;BMP280;68451;49.510;6.026;2023-04-03T03:18:21;98879.09;;;0.72
79053;BMP280;68451;49.510;6.026;2023-04-03T03:20:46;99027.22;;;1.69
79053;BMP280;68451;49.510;6.026;2023-04-03T03:23:12;99015.84;;;1.52
79053;BMP280;68451;49.510;6.026;2023-04-03T03:25:39;98959.44;;;1.22
79053;BMP280;68451;49.510;6.026;2023-04-03T03:28:05;99044.56;;;1.67
79053;BMP280;68451;49.510;6.026;2023-04-03T03:30:31;99043.22;;;1.53
79053;BMP280;68451;49.510;6.026;2023-04-03T03:32:56;99032.28;;;1.32
79053;BMP280;68451;49.510;6.026;2023-04-03T03:35:22;98965.03;;;0.88
79053;BMP280;68451;49.510;6.026;2023-04-03T03:37:47;99025.66;;;1.20
79053;BMP280;68451;49.510;6.026;2023-04-03T03:40:13;99041.47;;;1.34
79053;BMP280;68451;49.510;6.026;2023-04-03T03:42:39;99028.09;;;1.21
79053;BMP280;68451;49.510;6.026;2023-04-03T03:45:06;98783.69;;;-0.20
79053;BMP280;68451;49.510;6.026;2023-04-03T03:47:31;99011.84;;;1.21
79053;BMP280;68451;49.510;6.026;2023-04-03T03:49:57;99009.13;;;1.13
79053;BMP280;68451;49.510;6.026;2023-04-03T03:52:22;98973.97;;;0.84
79053;BMP280;68451;49.510;6.026;2023-04-03T03:54:48;98979.38;;;0.81
79053;BMP280;68451;49.510;6.026;2023-04-03T03:57:13;99040.28;;;1.29
79053;BMP280;68451;49.510;6.026;2023-04-03T03:59:40;98992.91;;;1.03
79053;BMP280;68451;49.510;6.026;2023-04-03T04:02:07;99020.53;;;1.20
79053;BMP280;68451;49.510;6.026;2023-04-03T04:04:32;98999.41;;;0.97
79053;BMP280;68451;49.510;6.026;2023-04-03T04:06:58;99017.13;;;1.10
79053;BMP280;68451;49.510;6.026;2023-04-03T04:09:26;98990.06;;;0.96
79053;BMP280;68451;49.510;6.026;2023-04-03T04:11:52;98859.38;;;0.15
79053;BMP280;68451;49.510;6.026;2023-04-03T04:14:18;99028.66;;;1.25
79053;BMP280;68451;49.510;6.026;2023-04-03T04:16:46;98966.09;;;0.76
79053;BMP280;68451;49.510;6.026;2023-04-03T04:19:12;99035.66;;;1.13
79053;BMP280;68451;49.510;6.026;2023-04-03T04:21:38;99008.06;;;0.96
79053;BMP280;68451;49.510;6.026;2023-04-03T04:24:05;99036.78;;;1.11
79053;BMP280;68451;49.510;6.026;2023-04-03T04:26:30;99036.75;;;1.01
79053;BMP280;68451;49.510;6.026;2023-04-03T04:28:56;99026.59;;;0.80
79053;BMP280;68451;49.510;6.026;2023-04-03T04:31:21;99031.47;;;0.74
79053;BMP280;68451;49.510;6.026;2023-04-03T04:33:47;99017.78;;;0.73
79053;BMP280;68451;49.510;6.026;2023-04-03T04:36:12;99033.75;;;0.77
79053;BMP280;68451;49.510;6.026;2023-04-03T04:38:39;98935.47;;;0.16
79053;BMP280;68451;49.510;6.026;2023-04-03T04:41:05;99032.13;;;0.85
79053;BMP280;68451;49.510;6.026;2023-04-03T04:43:30;99039.31;;;0.92
79053;BMP280;68451;49.510;6.026;2023-04-03T04:46:07;99043.66;;;0.91
79053;BMP280;68451;49.510;6.026;2023-04-03T04:48:34;98955.25;;;0.34
79053;BMP280;68451;49.510;6.026;2023-04-03T04:51:00;98921.25;;;0.02
79053;BMP280;68451;49.510;6.026;2023-04-03T04:53:44;99020.25;;;0.75
79053;BMP280;68451;49.510;6.026;2023-04-03T04:56:10;99037.28;;;0.76
79053;BMP280;68451;49.510;6.026;2023-04-03T04:58:36;99029.16;;;0.71
79053;BMP280;68451;49.510;6.026;2023-04-03T05:01:04;99046.38;;;0.80
79053;BMP280;68451;49.510;6.026;2023-04-03T05:03:30;98917.59;;;-0.05
79053;BMP280;68451;49.510;6.026;2023-04-03T05:05:56;98924.91;;;-0.01
79053;BMP280;68451;49.510;6.026;2023-04-03T05:08:21;99027.78;;;0.57
79053;BMP280;68451;49.510;6.026;2023-04-03T05:10:48;98905.78;;;-0.17
79053;BMP280;68451;49.510;6.026;2023-04-03T05:13:13;98814.47;;;-0.79
79053;BMP280;68451;49.510;6.026;2023-04-03T05:15:39;99041.84;;;0.53
79053;BMP280;68451;49.510;6.026;2023-04-03T05:18:05;98932.31;;;-0.07
79053;BMP280;68451;49.510;6.026;2023-04-03T05:20:32;99049.16;;;0.58
79053;BMP280;68451;49.510;6.026;2023-04-03T05:22:57;99029.94;;;0.52
79053;BMP280;68451;49.510;6.026;2023-04-03T05:25:23;99039.16;;;0.74
79053;BMP280;68451;49.510;6.026;2023-04-03T05:27:49;99060.03;;;0.90
79053;BMP280;68451;49.510;6.026;2023-04-03T05:30:15;98939.66;;;0.07
79053;BMP280;68451;49.510;6.026;2023-04-03T05:32:40;99031.72;;;0.61
79053;BMP280;68451;49.510;6.026;2023-04-03T05:35:07;99046.34;;;0.70
79053;BMP280;68451;49.510;6.026;2023-04-03T05:37:33;99002.50;;;0.53
79053;BMP280;68451;49.510;6.026;2023-04-03T05:39:59;99071.41;;;0.97
79053;BMP280;68451;49.510;6.026;2023-04-03T05:42:25;98902.19;;;0.05
79053;BMP280;68451;49.510;6.026;2023-04-03T05:44:51;99045.97;;;0.84
79053;BMP280;68451;49.510;6.026;2023-04-03T05:47:17;99043.41;;;0.84
79053;BMP280;68451;49.510;6.026;2023-04-03T05:49:43;99057.06;;;1.04
79053;BMP280;68451;49.510;6.026;2023-04-03T05:52:23;99079.81;;;1.18
79053;BMP280;68451;49.510;6.026;2023-04-03T05:54:50;99076.94;;;1.12
79053;BMP280;68451;49.510;6.026;2023-04-03T05:57:16;99046.66;;;1.06
79053;BMP280;68451;49.510;6.026;2023-04-03T05:59:42;98958.66;;;0.44
79053;BMP280;68451;49.510;6.026;2023-04-03T06:02:12;99060.59;;;1.32
79053;BMP280;68451;49.510;6.026;2023-04-03T06:04:37;99060.72;;;1.40
79053;BMP280;68451;49.510;6.026;2023-04-03T06:07:03;98965.56;;;1.11
79053;BMP280;68451;49.510;6.026;2023-04-03T06:09:29;99084.34;;;1.92
79053;BMP280;68451;49.510;6.026;2023-04-03T06:11:56;98973.34;;;1.39
79053;BMP280;68451;49.510;6.026;2023-04-03T06:14:24;99086.59;;;2.14
79053;BMP280;68451;49.510;6.026;2023-04-03T06:16:50;99094.31;;;2.41
79053;BMP280;68451;49.510;6.026;2023-04-03T06:19:15;99074.47;;;2.51
79053;BMP280;68451;49.510;6.026;2023-04-03T06:21:41;99079.72;;;2.59
79053;BMP280;68451;49.510;6.026;2023-04-03T06:24:06;99075.38;;;2.60
79053;BMP280;68451;49.510;6.026;2023-04-03T06:26:33;99084.91;;;2.77
79053;BMP280;68451;49.510;6.026;2023-04-03T06:28:59;99089.97;;;3.14
79053;BMP280;68451;49.510;6.026;2023-04-03T06:31:25;98994.81;;;2.58
79053;BMP280;68451;49.510;6.026;2023-04-03T06:33:51;99072.78;;;3.23
79053;BMP280;68451;49.510;6.026;2023-04-03T06:36:19;98961.66;;;2.63
79053;BMP280;68451;49.510;6.026;2023-04-03T06:38:46;99095.81;;;3.51
79053;BMP280;68451;49.510;6.026;2023-04-03T06:41:11;99069.91;;;3.43
79053;BMP280;68451;49.510;6.026;2023-04-03T06:43:37;99109.13;;;3.82
79053;BMP280;68451;49.510;6.026;2023-04-03T06:46:03;99070.50;;;3.81
79053;BMP280;68451;49.510;6.026;2023-04-03T06:48:28;99060.53;;;3.86
79053;BMP280;68451;49.510;6.026;2023-04-03T06:50:54;98982.59;;;3.65
79053;BMP280;68451;49.510;6.026;2023-04-03T06:53:20;99081.22;;;4.54
79053;BMP280;68451;49.510;6.026;2023-04-03T06:55:46;98946.53;;;3.89
79053;BMP280;68451;49.510;6.026;2023-04-03T06:58:12;99083.25;;;4.84
79053;BMP280;68451;49.510;6.026;2023-04-03T07:00:40;99040.56;;;4.80
79053;BMP280;68451;49.510;6.026;2023-04-03T07:03:06;99069.09;;;5.20
79053;BMP280;68451;49.510;6.026;2023-04-03T07:05:32;98970.50;;;4.65
79053;BMP280;68451;49.510;6.026;2023-04-03T07:07:57;99097.94;;;5.66
79053;BMP280;68451;49.510;6.026;2023-04-03T07:10:23;99089.00;;;5.68
79053;BMP280;68451;49.510;6.026;2023-04-03T07:12:48;99112.00;;;5.71
79053;BMP280;68451;49.510;6.026;2023-04-03T07:15:14;99082.38;;;5.66
79053;BMP280;68451;49.510;6.026;2023-04-03T07:17:39;99087.22;;;5.77
79053;BMP280;68451;49.510;6.026;2023-04-03T07:20:06;99104.72;;;5.83
79053;BMP280;68451;49.510;6.026;2023-04-03T07:22:32;98998.84;;;5.31
79053;BMP280;68451;49.510;6.026;2023-04-03T07:24:58;99103.56;;;6.10
79053;BMP280;68451;49.510;6.026;2023-04-03T07:27:24;98993.47;;;5.49
79053;BMP280;68451;49.510;6.026;2023-04-03T07:29:50;99089.19;;;5.91
79053;BMP280;68451;49.510;6.026;2023-04-03T07:32:16;99075.56;;;5.97
79053;BMP280;68451;49.510;6.026;2023-04-03T07:34:43;99079.44;;;6.09
79053;BMP280;68451;49.510;6.026;2023-04-03T07:37:09;99095.63;;;6.11
79053;BMP280;68451;49.510;6.026;2023-04-03T07:39:35;99101.66;;;5.96
79053;BMP280;68451;49.510;6.026;2023-04-03T07:42:01;99116.19;;;6.13
79053;BMP280;68451;49.510;6.026;2023-04-03T07:44:27;99088.53;;;5.97
79053;BMP280;68451;49.510;6.026;2023-04-03T07:46:53;99106.97;;;6.18
79053;BMP280;68451;49.510;6.026;2023-04-03T07:49:20;99086.22;;;6.18
79053;BMP280;68451;49.510;6.026;2023-04-03T07:51:48;99107.84;;;6.50
79053;BMP280;68451;49.510;6.026;2023-04-03T07:54:14;99044.44;;;5.81
79053;BMP280;68451;49.510;6.026;2023-04-03T07:56:40;99098.69;;;6.15
79053;BMP280;68451;49.510;6.026;2023-04-03T07:59:08;99108.81;;;6.49
79053;BMP280;68451;49.510;6.026;2023-04-03T08:01:33;99119.50;;;6.54
79053;BMP280;68451;49.510;6.026;2023-04-03T08:03:59;99093.66;;;6.21
79053;BMP280;68451;49.510;6.026;2023-04-03T08:06:25;99009.19;;;5.64
79053;BMP280;68451;49.510;6.026;2023-04-03T08:08:51;99109.06;;;6.23
79053;BMP280;68451;49.510;6.026;2023-04-03T08:11:17;98940.09;;;5.24
79053;BMP280;68451;49.510;6.026;2023-04-03T08:13:44;99102.41;;;6.28
79053;BMP280;68451;49.510;6.026;2023-04-03T08:16:17;99106.06;;;6.50
79053;BMP280;68451;49.510;6.026;2023-04-03T08:18:43;99096.94;;;6.54
79053;BMP280;68451;49.510;6.026;2023-04-03T08:21:10;99097.22;;;6.28
79053;BMP280;68451;49.510;6.026;2023-04-03T08:23:37;99101.75;;;6.18
79053;BMP280;68451;49.510;6.026;2023-04-03T08:26:08;98968.25;;;5.43
79053;BMP280;68451;49.510;6.026;2023-04-03T08:28:34;99113.09;;;6.25
79053;BMP280;68451;49.510;6.026;2023-04-03T08:31:05;99096.25;;;6.13
79053;BMP280;68451;49.510;6.026;2023-04-03T08:33:31;99075.88;;;5.94
79053;BMP280;68451;49.510;6.026;2023-04-03T08:35:57;99101.81;;;6.02
79053;BMP280;68451;49.510;6.026;2023-04-03T08:38:23;99111.34;;;6.10
79053;BMP280;68451;49.510;6.026;2023-04-03T08:41:04;99131.63;;;5.66
79053;BMP280;68451;49.510;6.026;2023-04-03T08:43:43;99111.84;;;5.57
79053;BMP280;68451;49.510;6.026;2023-04-03T08:46:14;99119.00;;;5.87
79053;BMP280;68451;49.510;6.026;2023-04-03T08:48:42;99116.06;;;5.98
79053;BMP280;68451;49.510;6.026;2023-04-03T08:51:15;99066.19;;;5.48
79053;BMP280;68451;49.510;6.026;2023-04-03T08:53:56;99121.41;;;5.56
79053;BMP280;68451;49.510;6.026;2023-04-03T08:56:24;99025.50;;;4.83
79053;BMP280;68451;49.510;6.026;2023-04-03T08:58:55;99053.84;;;4.93
79053;BMP280;68451;49.510;6.026;2023-04-03T09:01:30;99118.56;;;5.09
79053;BMP280;68451;49.510;6.026;2023-04-03T09:04:00;99134.16;;;5.25
79053;BMP280;68451;49.510;6.026;2023-04-03T09:06:31;99121.81;;;5.03
79053;BMP280;68451;49.510;6.026;2023-04-03T09:09:12;99121.69;;;5.29
79053;BMP280;68451;49.510;6.026;2023-04-03T09:14:41;99127.25;;;5.66
79053;BMP280;68451;49.510;6.026;2023-04-03T09:20:21;98983.97;;;5.09
79053;BMP280;68451;49.510;6.026;2023-04-03T09:22:50;99084.13;;;5.81
79053;BMP280;68451;49.510;6.026;2023-04-03T09:25:22;98905.34;;;4.70
79053;BMP280;68451;49.510;6.026;2023-04-03T09:27:48;99128.53;;;6.11
79053;BMP280;68451;49.510;6.026;2023-04-03T09:30:17;99106.66;;;5.73
79053;BMP280;68451;49.510;6.026;2023-04-03T09:32:45;99099.53;;;5.83
79053;BMP280;68451;49.510;6.026;2023-04-03T09:35:27;99122.47;;;6.43
79053;BMP280;68451;49.510;6.026;2023-04-03T09:38:01;99105.25;;;6.50
79053;BMP280;68451;49.510;6.026;2023-04-03T09:40:30;99088.00;;;6.10
79053;BMP280;68451;49.510;6.026;2023-04-03T09:42:59;99087.84;;;6.03
79053;BMP280;68451;49.510;6.026;2023-04-03T09:45:33;99088.50;;;6.13
79053;BMP280;68451;49.510;6.026;2023-04-03T09:48:18;99002.06;;;5.66
79053;BMP280;68451;49.510;6.026;2023-04-03T09:50:57;99090.84;;;6.39
79053;BMP280;68451;49.510;6.026;2023-04-03T09:53:41;98992.94;;;5.94
79053;BMP280;68451;49.510;6.026;2023-04-03T09:56:28;99124.41;;;6.80
79053;BMP280;68451;49.510;6.026;2023-04-03T09:59:13;99037.63;;;6.04
79053;BMP280;68451;49.510;6.026;2023-04-03T10:01:42;99110.25;;;6.90
79053;BMP280;68451;49.510;6.026;2023-04-03T10:04:18;98906.81;;;6.15
79053;BMP280;68451;49.510;6.026;2023-04-03T10:06:47;99108.88;;;7.93
79053;BMP280;68451;49.510;6.026;2023-04-03T10:09:25;99117.81;;;7.91
79053;BMP280;68451;49.510;6.026;2023-04-03T10:12:09;99117.59;;;7.78
79053;BMP280;68451;49.510;6.026;2023-04-03T10:14:54;99110.88;;;7.46
79053;BMP280;68451;49.510;6.026;2023-04-03T10:20:33;99080.84;;;6.67
79053;BMP280;68451;49.510;6.026;2023-04-03T10:23:18;98992.47;;;6.29
79053;BMP280;68451;49.510;6.026;2023-04-03T10:26:21;99105.84;;;7.22
79053;BMP280;68451;49.510;6.026;2023-04-03T10:34:37;99081.50;;;6.22
79053;BMP280;68451;49.510;6.026;2023-04-03T10:37:24;99102.41;;;6.12
79053;BMP280;68451;49.510;6.026;2023-04-03T10:40:12;99111.81;;;6.13
79053;BMP280;68451;49.510;6.026;2023-04-03T11:14:03;99045.41;;;6.51
79053;BMP280;68451;49.510;6.026;2023-04-03T11:16:36;99076.31;;;6.69
79053;BMP280;68451;49.510;6.026;2023-04-03T11:19:13;99081.06;;;6.49
79053;BMP280;68451;49.510;6.026;2023-04-03T11:21:51;99052.63;;;6.33
79053;BMP280;68451;49.510;6.026;2023-04-03T11:24:27;99068.97;;;6.42
79053;BMP280;68451;49.510;6.026;2023-04-03T11:26:55;99034.47;;;6.25
79053;BMP280;68451;49.510;6.026;2023-04-03T11:29:32;99053.00;;;6.53
79053;BMP280;68451;49.510;6.026;2023-04-03T11:34:57;99022.97;;;6.27
79053;BMP280;68451;49.510;6.026;2023-04-03T11:37:47;99066.78;;;6.53
79053;BMP280;68451;49.510;6.026;2023-04-03T11:40:25;99045.47;;;6.66
79053;BMP280;68451;49.510;6.026;2023-04-03T11:42:55;99045.44;;;6.74
79053;BMP280;68451;49.510;6.026;2023-04-03T11:45:35;99055.50;;;6.77
79053;BMP280;68451;49.510;6.026;2023-04-03T11:50:47;99036.34;;;6.78
79053;BMP280;68451;49.510;6.026;2023-04-03T11:53:39;99030.13;;;6.87
79053;BMP280;68451;49.510;6.026;2023-04-03T11:59:19;99032.44;;;7.05
79053;BMP280;68451;49.510;6.026;2023-04-03T12:01:51;98883.34;;;6.08
79053;BMP280;68451;49.510;6.026;2023-04-03T12:04:19;99042.03;;;7.04
79053;BMP280;68451;49.510;6.026;2023-04-03T12:07:11;99048.94;;;7.12
79053;BMP280;68451;49.510;6.026;2023-04-03T12:09:58;99024.47;;;7.06
79053;BMP280;68451;49.510;6.026;2023-04-03T12:12:37;99015.41;;;7.02
79053;BMP280;68451;49.510;6.026;2023-04-03T12:15:20;99030.59;;;7.13
79053;BMP280;68451;49.510;6.026;2023-04-03T12:17:46;98899.47;;;6.49
79053;BMP280;68451;49.510;6.026;2023-04-03T12:23:27;99004.25;;;7.16
79053;BMP280;68451;49.510;6.026;2023-04-03T12:26:00;98999.41;;;7.36
79053;BMP280;68451;49.510;6.026;2023-04-03T12:28:29;99004.66;;;7.28
79053;BMP280;68451;49.510;6.026;2023-04-03T12:30:55;98902.28;;;6.62
79053;BMP280;68451;49.510;6.026;2023-04-03T12:33:42;99001.31;;;7.19
79053;BMP280;68451;49.510;6.026;2023-04-03T12:36:15;99006.56;;;7.34
79053;BMP280;68451;49.510;6.026;2023-04-03T12:41:51;99003.38;;;7.24
79053;BMP280;68451;49.510;6.026;2023-04-03T12:44:38;99004.31;;;7.31
79053;BMP280;68451;49.510;6.026;2023-04-03T12:47:21;99008.94;;;7.58
79053;BMP280;68451;49.510;6.026;2023-04-03T12:49:49;98976.84;;;7.51
79053;BMP280;68451;49.510;6.026;2023-04-03T12:52:32;98984.81;;;7.64
79053;BMP280;68451;49.510;6.026;2023-04-03T12:55:00;98962.59;;;7.62
79053;BMP280;68451;49.510;6.026;2023-04-03T12:57:29;98963.94;;;7.58
79053;BMP280;68451;49.510;6.026;2023-04-03T12:59:56;98961.97;;;7.60
79053;BMP280;68451;49.510;6.026;2023-04-03T13:02:28;98859.75;;;7.01
79053;BMP280;68451;49.510;6.026;2023-04-03T13:04:59;98910.25;;;7.36
79053;BMP280;68451;49.510;6.026;2023-04-03T13:07:32;98934.97;;;7.32
79053;BMP280;68451;49.510;6.026;2023-04-03T13:10:15;98955.34;;;7.57
79053;BMP280;68451;49.510;6.026;2023-04-03T13:12:54;98968.00;;;7.75
79053;BMP280;68451;49.510;6.026;2023-04-03T13:15:26;98973.09;;;7.83
79053;BMP280;68451;49.510;6.026;2023-04-03T13:17:53;98960.03;;;7.77
79053;BMP280;68451;49.510;6.026;2023-04-03T13:20:26;98964.56;;;7.75
79053;BMP280;68451;49.510;6.026;2023-04-03T13:23:00;98878.00;;;7.30
79053;BMP280;68451;49.510;6.026;2023-04-03T13:25:30;98965.84;;;7.79
79053;BMP280;68451;49.510;6.026;2023-04-03T13:27:57;98963.88;;;7.66
79053;BMP280;68451;49.510;6.026;2023-04-03T13:30:29;98837.97;;;6.72
79053;BMP280;68451;49.510;6.026;2023-04-03T13:32:57;98848.56;;;6.86
79053;BMP280;68451;49.510;6.026;2023-04-03T13:35:37;98974.50;;;7.86
79053;BMP280;68451;49.510;6.026;2023-04-03T13:38:23;98858.19;;;7.14
79053;BMP280;68451;49.510;6.026;2023-04-03T13:40:56;98906.41;;;7.46
79053;BMP280;68451;49.510;6.026;2023-04-03T13:43:27;98871.81;;;7.31
79053;BMP280;68451;49.510;6.026;2023-04-03T13:46:04;98959.13;;;7.84
79053;BMP280;68451;49.510;6.026;2023-04-03T13:48:42;98940.38;;;7.89
79053;BMP280;68451;49.510;6.026;2023-04-03T13:51:28;98943.31;;;8.00
79053;BMP280;68451;49.510;6.026;2023-04-03T13:54:17;98955.97;;;7.89
79053;BMP280;68451;49.510;6.026;2023-04-03T13:56:43;98972.00;;;7.78
79053;BMP280;68451;49.510;6.026;2023-04-03T13:59:25;98975.59;;;7.62
79053;BMP280;68451;49.510;6.026;2023-04-03T14:02:16;98964.94;;;7.72
79053;BMP280;68451;49.510;6.026;2023-04-03T14:04:54;98931.75;;;7.59
79053;BMP280;68451;49.510;6.026;2023-04-03T14:07:23;98939.28;;;7.83
79053;BMP280;68451;49.510;6.026;2023-04-03T14:09:50;98944.22;;;7.93
79053;BMP280;68451;49.510;6.026;2023-04-03T14:12:28;98965.84;;;7.79
79053;BMP280;68451;49.510;6.026;2023-04-03T14:14:55;98945.22;;;7.62
79053;BMP280;68451;49.510;6.026;2023-04-03T14:17:24;98829.41;;;6.87
79053;BMP280;68451;49.510;6.026;2023-04-03T14:19:50;98931.75;;;7.59
79053;BMP280;68451;49.510;6.026;2023-04-03T14:22:21;98947.56;;;7.72
79053;BMP280;68451;49.510;6.026;2023-04-03T14:24:48;98833.53;;;7.10
79053;BMP280;68451;49.510;6.026;2023-04-03T14:27:22;98808.38;;;6.82
79053;BMP280;68451;49.510;6.026;2023-04-03T14:29:48;98805.75;;;6.67
79053;BMP280;68451;49.510;6.026;2023-04-03T14:32:15;98947.00;;;7.47
79053;BMP280;68451;49.510;6.026;2023-04-03T14:34:43;98719.56;;;6.05
79053;BMP280;68451;49.510;6.026;2023-04-03T14:37:12;98929.97;;;7.45
79053;BMP280;68451;49.510;6.026;2023-04-03T14:39:39;98919.91;;;7.42
79053;BMP280;68451;49.510;6.026;2023-04-03T14:42:04;98908.28;;;7.38
79053;BMP280;68451;49.510;6.026;2023-04-03T14:44:30;98934.88;;;7.54
79053;BMP280;68451;49.510;6.026;2023-04-03T14:46:56;98853.50;;;7.10
79053;BMP280;68451;49.510;6.026;2023-04-03T14:49:25;98919.41;;;7.61
79053;BMP280;68451;49.510;6.026;2023-04-03T14:51:52;98861.44;;;7.31
79053;BMP280;68451;49.510;6.026;2023-04-03T14:54:21;98924.22;;;7.64
79053;BMP280;68451;49.510;6.026;2023-04-03T14:56:51;98814.28;;;6.90
79053;BMP280;68451;49.510;6.026;2023-04-03T14:59:17;98912.59;;;7.60
79053;BMP280;68451;49.510;6.026;2023-04-03T15:01:45;98928.34;;;7.73
79053;BMP280;68451;49.510;6.026;2023-04-03T15:04:17;98935.28;;;7.81
79053;BMP280;68451;49.510;6.026;2023-04-03T15:06:43;98807.75;;;6.94
79053;BMP280;68451;49.510;6.026;2023-04-03T15:09:23;98905.59;;;7.60
79053;BMP280;68451;49.510;6.026;2023-04-03T15:11:50;98921.56;;;7.72
79053;BMP280;68451;49.510;6.026;2023-04-03T15:14:16;98906.56;;;7.74
79053;BMP280;68451;49.510;6.026;2023-04-03T15:16:42;98817.34;;;6.94
79053;BMP280;68451;49.510;6.026;2023-04-03T15:19:07;98933.66;;;7.65
79053;BMP280;68451;49.510;6.026;2023-04-03T15:21:33;98917.34;;;7.56
79053;BMP280;68451;49.510;6.026;2023-04-03T15:23:59;98926.94;;;7.71
79053;BMP280;68451;49.510;6.026;2023-04-03T15:26:25;98930.78;;;7.60
79053;BMP280;68451;49.510;6.026;2023-04-03T15:28:50;98912.94;;;7.57
79053;BMP280;68451;49.510;6.026;2023-04-03T15:31:16;98907.38;;;7.60
79053;BMP280;68451;49.510;6.026;2023-04-03T15:33:42;98939.84;;;7.79
79053;BMP280;68451;49.510;6.026;2023-04-03T15:36:08;98797.78;;;6.83
79053;BMP280;68451;49.510;6.026;2023-04-03T15:38:34;98905.06;;;7.65